Página principal
METAR-TAF:

METAR-TAF

Aeroportos :

Chengdu, China

Aeroporto Internacional de Chengdu Shuangliu

latitude: 30-40N, longitude: 104-01E, altura: 508 m

Observação actual do tempo

O boletim foi feito há 43 minutos, às 23:00 UTC
Vento 2 kt de nor-noroeste
Temperatura 8°C
Humidade 76%
Pressão 1021 hPa
Visibilidade 10 km ou mais
sem nuvens abaixo de 1500 metros e sem cumulonimbus

METAR: ZUUU 182300Z 33001MPS CAVOK 08/04 Q1021 NOSIG

Hora: 07:43 (23:43 UTC)

Previsão

O boletim foi feito há 3 horas e 41 minutos, às 20:02 UTC
Previsão válida de 19 às 00 UTC a 19 às 24 UTC
Vento 6 kt de nor-nordeste
Visibilidade: 3500 m
Nuvens dispersasa uma altura de 5000 ft
neblina

TAF: ZUUU 182002Z 1900/1924 02003MPS 3500 BR SCT050 TX17/1907Z TN09/1923Z

Observações e previsões do tempo de mais de 4000 aeroportos (mensagens METAR e TAF).

As estações disponíveis são os pontos amarelos e vermelhos sobre o mapa.

Mova o rato sobre o mapa para ver o nome da estação.

Depois clique no ponto para visualizar as observações e previsões meteorológicas.

Para alterar o mapa : clique nos botões verdes com uma cruz preta para aumentar o zoom; no botão verde com uma pitada de zoom; ou nas setas verdes para mapas adjacentes.


METAR-TAF: